createdAt,value
2019-03-13T00:00:19.286Z,5.03
2019-03-13T00:18:23.290Z,4.78
2019-03-13T00:20:51.631Z,4.81
2019-03-13T00:23:20.079Z,4.89
2019-03-13T00:25:48.419Z,4.79
2019-03-13T00:28:16.867Z,4.82
2019-03-13T00:30:45.209Z,4.94
2019-03-13T00:33:13.653Z,4.92
2019-03-13T00:35:42.064Z,4.84
2019-03-13T00:38:10.439Z,4.87
2019-03-13T00:40:38.845Z,4.94
2019-03-13T00:43:07.223Z,4.81
2019-03-13T00:45:35.560Z,4.90
2019-03-13T00:48:03.901Z,4.87
2019-03-13T00:50:33.833Z,4.84
2019-03-13T00:53:02.227Z,4.84
2019-03-13T00:55:30.602Z,4.89
2019-03-13T00:57:58.938Z,4.94
2019-03-13T01:00:45.190Z,4.85
2019-03-13T01:03:30.022Z,4.89
2019-03-13T01:06:08.805Z,4.83
2019-03-13T01:08:37.176Z,4.79
2019-03-13T01:11:05.513Z,4.86
2019-03-13T01:13:33.921Z,4.84
2019-03-13T01:16:02.297Z,4.90
2019-03-13T01:18:30.643Z,4.90
2019-03-13T01:20:59.017Z,4.94
2019-03-13T01:23:27.352Z,4.95
2019-03-13T01:25:55.727Z,5.03
2019-03-13T01:28:24.064Z,4.99
2019-03-13T01:31:10.608Z,5.01
2019-03-13T01:33:39.058Z,5.17
2019-03-13T01:36:07.693Z,5.10
2019-03-13T01:38:36.034Z,5.12
2019-03-13T01:41:04.559Z,5.23
2019-03-13T01:43:32.897Z,5.24
2019-03-13T01:46:01.338Z,5.14
2019-03-13T01:48:29.680Z,5.14
2019-03-13T01:50:58.053Z,5.23
2019-03-13T01:53:26.389Z,5.22
2019-03-13T01:55:54.834Z,5.15
2019-03-13T01:58:23.173Z,5.09
2019-03-13T02:00:51.620Z,5.17
2019-03-13T02:03:19.957Z,5.23
2019-03-13T02:05:48.326Z,5.17
2019-03-13T02:08:16.734Z,5.25
2019-03-13T02:10:45.122Z,5.18
2019-03-13T02:13:13.539Z,5.22
2019-03-13T02:15:42.144Z,5.18
2019-03-13T02:18:10.565Z,5.19
2019-03-13T02:20:39.288Z,5.18
2019-03-13T02:23:07.754Z,5.21
2019-03-13T02:25:36.120Z,5.23
2019-03-13T02:28:05.530Z,5.29
2019-03-13T02:30:33.966Z,5.21
2019-03-13T02:33:02.330Z,5.25
2019-03-13T02:35:36.527Z,5.17
2019-03-13T02:38:05.207Z,5.24
2019-03-13T02:40:33.542Z,5.26
2019-03-13T02:43:01.910Z,5.15
2019-03-13T02:45:30.540Z,5.22
2019-03-13T02:47:58.908Z,5.18
2019-03-13T02:50:27.257Z,5.23
2019-03-13T02:52:55.988Z,5.15
2019-03-13T02:55:24.328Z,5.19
2019-03-13T02:57:52.695Z,5.25
2019-03-13T03:00:22.684Z,5.18
2019-03-13T03:02:55.698Z,5.32
2019-03-13T03:05:24.104Z,5.22
2019-03-13T03:07:52.550Z,5.13
2019-03-13T03:10:20.962Z,5.18
2019-03-13T03:12:49.586Z,5.27
2019-03-13T03:15:18.866Z,5.16
2019-03-13T03:17:47.369Z,5.15
2019-03-13T03:20:18.162Z,5.06
2019-03-13T03:22:46.537Z,5.08
2019-03-13T03:25:16.479Z,5.06
2019-03-13T03:27:44.848Z,5.05
2019-03-13T03:30:22.454Z,5.14
2019-03-13T03:32:51.151Z,5.14
2019-03-13T03:35:19.582Z,5.10
2019-03-13T03:37:48.088Z,5.07
2019-03-13T03:40:22.713Z,5.13
2019-03-13T03:42:48.688Z,5.13
2019-03-13T03:45:17.151Z,5.18
2019-03-13T03:47:45.865Z,5.22
2019-03-13T03:50:15.739Z,5.22
2019-03-13T03:52:44.268Z,5.15
2019-03-13T03:55:14.298Z,5.11
2019-03-13T03:57:42.756Z,5.18
2019-03-13T04:00:13.780Z,5.29
2019-03-13T04:02:44.883Z,5.25
2019-03-13T04:05:14.401Z,5.18
2019-03-13T04:07:44.136Z,5.28
2019-03-13T04:10:14.041Z,5.20
2019-03-13T04:12:44.247Z,5.26
2019-03-13T04:15:20.924Z,5.29
2019-03-13T04:17:49.814Z,5.24
2019-03-13T04:20:18.606Z,5.20
2019-03-13T04:22:47.023Z,5.18
2019-03-13T04:25:27.315Z,5.12
2019-03-13T04:27:55.956Z,5.13
2019-03-13T04:30:24.458Z,5.07
2019-03-13T04:32:52.771Z,4.99
2019-03-13T04:35:21.145Z,4.95
2019-03-13T04:37:49.482Z,5.08
2019-03-13T04:40:17.846Z,5.00
2019-03-13T04:42:46.263Z,5.13
2019-03-13T04:45:14.703Z,5.10
2019-03-13T04:47:43.098Z,5.16
2019-03-13T04:50:15.504Z,5.14
2019-03-13T04:52:44.172Z,5.13
2019-03-13T04:55:13.872Z,5.09
2019-03-13T04:57:42.209Z,5.16
2019-03-13T05:00:15.385Z,5.16
2019-03-13T05:02:44.512Z,5.13
2019-03-13T05:05:39.121Z,5.02
2019-03-13T05:08:07.437Z,5.06
2019-03-13T05:10:35.812Z,4.98
2019-03-13T05:13:04.222Z,5.09
2019-03-13T05:15:33.368Z,5.05
2019-03-13T05:18:01.718Z,5.04
2019-03-13T05:20:30.068Z,4.99
2019-03-13T05:22:58.412Z,4.93
2019-03-13T05:25:26.847Z,4.95
2019-03-13T05:27:55.251Z,4.95
2019-03-13T05:30:23.629Z,4.94
2019-03-13T05:32:52.036Z,4.88
2019-03-13T05:35:20.408Z,4.90
2019-03-13T05:37:48.734Z,4.88
2019-03-13T05:40:17.396Z,4.79
2019-03-13T05:42:45.731Z,4.88
2019-03-13T05:45:14.252Z,4.89
2019-03-13T05:47:43.151Z,4.93
2019-03-13T05:50:19.483Z,4.97
2019-03-13T05:52:47.906Z,4.89
2019-03-13T05:55:16.649Z,4.88
2019-03-13T05:57:44.971Z,4.85
2019-03-13T06:00:15.653Z,4.86
2019-03-13T06:02:44.057Z,4.89
2019-03-13T06:05:12.398Z,4.98
2019-03-13T06:07:40.758Z,4.97
2019-03-13T06:10:13.726Z,4.86
2019-03-13T06:12:42.096Z,4.85
2019-03-13T06:15:12.774Z,4.85
2019-03-13T06:17:41.138Z,5.00
2019-03-13T06:20:14.848Z,4.92
2019-03-13T06:22:43.217Z,4.93
2019-03-13T06:25:12.629Z,4.88
2019-03-13T06:27:41.040Z,4.81
2019-03-13T06:30:22.619Z,4.84
2019-03-13T06:32:50.987Z,4.90
2019-03-13T06:35:19.322Z,4.92
2019-03-13T06:37:47.692Z,4.93
2019-03-13T06:40:18.430Z,4.92
2019-03-13T06:42:46.882Z,4.79
2019-03-13T06:45:16.038Z,4.77
2019-03-13T06:47:44.410Z,4.80
2019-03-13T06:50:18.828Z,4.94
2019-03-13T06:52:47.262Z,4.91
2019-03-13T06:55:15.674Z,4.95
2019-03-13T06:57:44.105Z,4.85
2019-03-13T07:00:31.078Z,4.89
2019-03-13T07:03:01.158Z,4.85
2019-03-13T07:05:47.392Z,4.89
2019-03-13T07:08:33.691Z,4.96
2019-03-13T07:11:19.805Z,4.96
2019-03-13T07:14:04.607Z,4.93
2019-03-13T07:16:34.587Z,4.93
2019-03-13T07:19:16.711Z,5.00
2019-03-13T07:21:58.691Z,4.98
2019-03-13T07:24:28.719Z,4.92
2019-03-13T07:27:01.147Z,4.95
2019-03-13T07:29:33.733Z,4.92
2019-03-13T07:32:09.751Z,4.91
2019-03-13T07:34:39.765Z,4.93
2019-03-13T07:37:12.531Z,4.88
2019-03-13T07:39:51.259Z,4.75
2019-03-13T07:42:27.285Z,4.85
2019-03-13T07:45:06.035Z,4.87
2019-03-13T07:47:38.707Z,4.93
2019-03-13T07:50:26.964Z,4.87
2019-03-13T07:53:12.936Z,4.97
2019-03-13T07:56:00.879Z,4.92
2019-03-13T07:58:30.889Z,4.91
2019-03-13T08:01:00.939Z,5.00
2019-03-13T08:03:33.651Z,5.15
2019-03-13T08:06:06.317Z,5.43
2019-03-13T08:08:39.137Z,5.52
2019-03-13T08:11:27.492Z,5.43
2019-03-13T08:14:06.664Z,5.45
2019-03-13T08:16:45.927Z,5.58
2019-03-13T08:19:15.933Z,5.38
2019-03-13T08:22:01.776Z,5.42
2019-03-13T08:24:34.506Z,5.28
2019-03-13T08:27:04.477Z,5.25
2019-03-13T08:29:34.494Z,5.21
2019-03-13T08:32:22.627Z,5.18
2019-03-13T08:34:52.638Z,5.13
2019-03-13T08:37:25.282Z,5.12
2019-03-13T08:39:55.292Z,5.08
2019-03-13T08:42:28.037Z,5.11
2019-03-13T08:45:10.284Z,5.16
2019-03-13T08:47:49.248Z,5.18
2019-03-13T08:50:25.023Z,5.11
2019-03-13T08:52:55.000Z,5.15
2019-03-13T08:55:30.992Z,5.05
2019-03-13T08:58:06.913Z,4.98
2019-03-13T09:00:49.170Z,5.07
2019-03-13T09:03:19.152Z,5.03
2019-03-13T09:05:52.042Z,5.08
2019-03-13T09:08:22.020Z,5.14
2019-03-13T09:11:01.114Z,5.25
2019-03-13T09:13:33.576Z,5.18
2019-03-13T09:16:21.780Z,5.22
2019-03-13T09:18:54.414Z,5.24
2019-03-13T09:21:31.092Z,5.12
2019-03-13T09:24:01.731Z,5.15
2019-03-13T09:26:34.173Z,5.05
2019-03-13T09:29:16.132Z,5.01
2019-03-13T09:31:49.063Z,5.03
2019-03-13T09:34:21.991Z,4.84
2019-03-13T09:37:07.911Z,4.86
2019-03-13T09:39:46.952Z,4.94
2019-03-13T09:42:29.302Z,5.10
2019-03-13T09:44:59.537Z,5.09
2019-03-13T09:47:38.933Z,5.28
2019-03-13T09:50:14.478Z,5.51
2019-03-13T09:53:01.139Z,5.49
2019-03-13T09:55:34.223Z,5.34
2019-03-13T09:58:04.326Z,5.42
2019-03-13T10:00:49.478Z,5.44
2019-03-13T10:03:22.596Z,5.49
2019-03-13T10:05:58.167Z,5.50
2019-03-13T10:08:43.020Z,5.40
2019-03-13T10:11:19.252Z,5.45
2019-03-13T10:14:07.709Z,5.40
2019-03-13T10:16:37.826Z,5.42
2019-03-13T10:19:24.084Z,5.54
2019-03-13T10:21:57.130Z,5.81
2019-03-13T10:24:30.077Z,5.82
2019-03-13T10:27:00.345Z,5.90
2019-03-13T10:29:39.561Z,5.93
2019-03-13T10:32:09.761Z,6.15
2019-03-13T10:34:45.916Z,6.10
2019-03-13T10:37:16.024Z,6.16
2019-03-13T10:40:02.068Z,6.15
2019-03-13T10:42:37.541Z,5.96
2019-03-13T10:45:09.603Z,6.20
2019-03-13T10:47:45.900Z,6.21
2019-03-13T10:50:19.310Z,6.20
2019-03-13T10:53:01.775Z,6.19
2019-03-13T10:55:32.020Z,6.41
2019-03-13T10:58:04.684Z,6.58
2019-03-13T11:00:40.658Z,6.51
2019-03-13T11:03:13.687Z,6.52
2019-03-13T11:05:59.893Z,6.88
2019-03-13T11:08:29.934Z,6.84
2019-03-13T11:11:00.098Z,6.69
2019-03-13T11:13:36.153Z,6.60
2019-03-13T11:16:21.628Z,6.28
2019-03-13T11:19:00.937Z,6.16
2019-03-13T11:21:37.125Z,6.29
2019-03-13T11:24:23.733Z,6.44
2019-03-13T11:26:53.875Z,6.46
2019-03-13T11:29:26.580Z,6.41
2019-03-13T11:31:59.271Z,6.47
2019-03-13T11:34:41.744Z,6.29
2019-03-13T11:37:28.150Z,6.13
2019-03-13T11:40:07.484Z,6.15
2019-03-13T11:42:43.451Z,6.01
2019-03-13T11:45:16.640Z,5.91
2019-03-13T11:47:46.825Z,5.70
2019-03-13T11:50:17.173Z,5.74
2019-03-13T11:52:56.380Z,5.72
2019-03-13T11:55:26.460Z,5.71
2019-03-13T11:58:02.866Z,5.68
2019-03-13T12:00:39.251Z,5.65
2019-03-13T12:03:26.119Z,5.73
2019-03-13T12:05:59.024Z,5.61
2019-03-13T12:08:44.509Z,5.61
2019-03-13T12:11:29.761Z,5.51
2019-03-13T12:14:02.705Z,5.45
2019-03-13T12:16:47.869Z,5.39
2019-03-13T12:19:36.104Z,5.54
2019-03-13T12:22:18.175Z,5.54
2019-03-13T12:24:48.246Z,5.62
2019-03-13T12:27:27.490Z,5.55
2019-03-13T12:30:09.970Z,5.58
2019-03-13T12:32:56.158Z,5.55
2019-03-13T12:35:32.185Z,5.55
2019-03-13T12:38:18.916Z,5.54
2019-03-13T12:40:49.023Z,5.63
2019-03-13T12:43:35.453Z,5.68
2019-03-13T12:46:14.633Z,5.57
2019-03-13T12:48:44.782Z,5.49
2019-03-13T12:51:26.854Z,5.59
2019-03-13T12:54:00.171Z,5.70
2019-03-13T12:56:30.555Z,5.70
2019-03-13T12:59:17.482Z,5.89
2019-03-13T13:01:48.097Z,5.91
2019-03-13T13:04:18.486Z,5.89
2019-03-13T13:06:54.888Z,5.71
2019-03-13T13:09:29.319Z,5.66
2019-03-13T13:12:09.967Z,5.68
2019-03-13T13:14:46.829Z,5.74
2019-03-13T13:17:36.025Z,5.78
2019-03-13T13:20:10.959Z,5.81
2019-03-13T13:22:39.546Z,5.85
2019-03-13T13:25:10.356Z,5.92
2019-03-13T13:27:40.530Z,6.00
2019-03-13T13:30:14.807Z,6.01
2019-03-13T13:32:43.402Z,6.05
2019-03-13T13:35:11.941Z,6.04
2019-03-13T13:37:43.543Z,6.16
2019-03-13T13:40:15.789Z,6.24
2019-03-13T13:42:44.264Z,6.24
2019-03-13T13:45:34.030Z,6.46
2019-03-13T13:48:07.358Z,6.40
2019-03-13T13:50:40.392Z,6.35
2019-03-13T13:53:09.261Z,6.43
2019-03-13T13:55:37.754Z,6.55
2019-03-13T13:58:06.166Z,6.62
2019-03-13T14:00:35.061Z,6.55
2019-03-13T14:03:03.889Z,6.60
2019-03-13T14:05:32.760Z,6.62
2019-03-13T14:08:01.811Z,6.55
2019-03-13T14:10:31.191Z,6.66
2019-03-13T14:12:59.685Z,6.79
2019-03-13T14:15:29.868Z,6.82
2019-03-13T14:18:00.130Z,7.01
2019-03-13T14:20:28.512Z,7.51
2019-03-13T14:22:57.385Z,7.54
2019-03-13T14:25:28.248Z,7.72
2019-03-13T14:27:57.157Z,8.02
2019-03-13T14:30:26.054Z,7.82
2019-03-13T14:32:55.274Z,7.67
2019-03-13T14:35:23.852Z,7.47
2019-03-13T14:37:52.410Z,7.38
2019-03-13T14:40:21.214Z,7.50
2019-03-13T14:42:50.109Z,7.41
2019-03-13T14:45:21.795Z,7.50
2019-03-13T14:47:51.711Z,7.44
2019-03-13T14:50:23.523Z,7.39
2019-03-13T14:52:52.369Z,7.48
2019-03-13T14:55:21.222Z,7.37
2019-03-13T14:57:51.040Z,7.23
2019-03-13T15:00:24.307Z,7.23
2019-03-13T15:02:53.156Z,7.22
2019-03-13T15:05:26.662Z,7.17
2019-03-13T15:07:56.900Z,7.05
2019-03-13T15:10:25.824Z,6.93
2019-03-13T15:12:56.061Z,6.91
2019-03-13T15:15:25.051Z,6.79
2019-03-13T15:17:54.528Z,6.69
2019-03-13T15:20:25.226Z,6.59
2019-03-13T15:22:54.043Z,6.54
2019-03-13T15:25:23.473Z,6.57
2019-03-13T15:27:53.791Z,6.55
2019-03-13T15:30:30.550Z,6.44
2019-03-13T15:32:59.405Z,6.35
2019-03-13T15:35:28.868Z,6.35
2019-03-13T15:37:57.815Z,6.16
2019-03-13T15:40:27.184Z,6.09
2019-03-13T15:42:56.709Z,5.91
2019-03-13T15:45:28.005Z,5.82
2019-03-13T15:47:56.524Z,5.78
2019-03-13T15:50:25.314Z,5.72
2019-03-13T15:52:55.428Z,5.72
2019-03-13T15:55:24.831Z,5.68
2019-03-13T15:57:53.823Z,5.68
2019-03-13T16:00:27.303Z,5.65
2019-03-13T16:02:56.659Z,5.40
2019-03-13T16:05:27.124Z,5.16
2019-03-13T16:07:56.320Z,4.96
2019-03-13T16:10:24.678Z,4.93
2019-03-13T16:12:55.857Z,4.55
2019-03-13T16:15:38.967Z,4.50
2019-03-13T16:18:14.087Z,4.50
2019-03-13T16:20:42.719Z,4.54
2019-03-13T16:23:11.289Z,4.54
2019-03-13T16:25:39.963Z,4.66
2019-03-13T16:28:10.025Z,4.68
2019-03-13T16:30:46.165Z,4.74
2019-03-13T16:33:16.805Z,4.90
2019-03-13T16:35:45.691Z,5.00
2019-03-13T16:38:16.953Z,5.04
2019-03-13T16:40:45.435Z,5.10
2019-03-13T16:43:14.067Z,5.17
2019-03-13T16:45:42.535Z,5.26
2019-03-13T16:48:11.969Z,5.34
2019-03-13T16:50:40.638Z,5.36
2019-03-13T16:53:09.085Z,5.37
2019-03-13T16:55:38.271Z,5.48
2019-03-13T16:58:08.044Z,5.52
2019-03-13T17:00:36.834Z,5.60
2019-03-13T17:03:06.794Z,5.65
2019-03-13T17:05:35.687Z,5.61
2019-03-13T17:08:04.305Z,5.64
2019-03-13T17:10:33.098Z,5.63
2019-03-13T17:13:05.558Z,5.68
2019-03-13T17:15:33.614Z,5.61
2019-03-13T17:18:06.069Z,5.54
2019-03-13T17:20:40.770Z,5.55
2019-03-13T17:23:09.461Z,5.50
2019-03-13T17:25:40.221Z,5.57
2019-03-13T17:28:14.902Z,5.59
2019-03-13T17:30:44.020Z,5.58
2019-03-13T17:33:14.334Z,5.53
2019-03-13T17:35:43.462Z,5.53
2019-03-13T17:38:12.326Z,5.43
2019-03-13T17:40:40.734Z,5.40
2019-03-13T17:43:09.652Z,5.37
2019-03-13T17:45:38.602Z,5.37
2019-03-13T17:48:07.117Z,5.23
2019-03-13T17:50:35.725Z,5.26
2019-03-13T17:53:06.006Z,5.24
2019-03-13T17:55:34.413Z,5.32
2019-03-13T17:58:03.196Z,5.34
2019-03-13T18:00:53.717Z,5.51
2019-03-13T18:03:26.783Z,5.43
2019-03-13T18:05:55.684Z,5.54
2019-03-13T18:08:26.671Z,5.52
2019-03-13T18:10:59.065Z,5.57
2019-03-13T18:13:30.529Z,5.58
2019-03-13T18:16:03.095Z,5.62
2019-03-13T18:18:33.325Z,5.73
2019-03-13T18:21:02.071Z,5.82
2019-03-13T18:23:30.704Z,5.85
2019-03-13T18:26:01.114Z,5.84
2019-03-13T18:28:30.221Z,5.92
2019-03-13T18:31:01.799Z,5.93
2019-03-13T18:33:30.322Z,6.10
2019-03-13T18:36:00.598Z,6.06
2019-03-13T18:38:29.401Z,6.15
2019-03-13T18:40:58.069Z,6.06
2019-03-13T18:43:26.873Z,6.10
2019-03-13T18:45:55.390Z,6.14
2019-03-13T18:48:26.505Z,6.10
2019-03-13T18:50:55.652Z,6.14
2019-03-13T18:53:25.142Z,6.18
2019-03-13T18:55:53.815Z,6.19
2019-03-13T18:58:22.939Z,6.13
2019-03-13T19:00:54.447Z,6.17
2019-03-13T19:03:24.930Z,6.18
2019-03-13T19:05:54.785Z,6.20
2019-03-13T19:08:23.491Z,6.21
2019-03-13T19:10:52.677Z,6.21
2019-03-13T19:13:21.688Z,6.02
2019-03-13T19:15:51.037Z,5.89
2019-03-13T19:18:19.991Z,5.80
2019-03-13T19:20:48.810Z,5.50
2019-03-13T19:23:17.618Z,5.46
2019-03-13T19:25:48.076Z,5.37
2019-03-13T19:28:17.058Z,5.37
2019-03-13T19:30:46.205Z,5.34
2019-03-13T19:33:14.752Z,5.17
2019-03-13T19:35:44.062Z,5.18
2019-03-13T19:38:15.049Z,5.03
2019-03-13T19:40:43.485Z,4.93
2019-03-13T19:43:11.844Z,4.95
2019-03-13T19:45:50.304Z,4.85
2019-03-13T19:48:18.720Z,4.79
2019-03-13T19:50:47.197Z,4.83
2019-03-13T19:53:16.027Z,4.74
2019-03-13T19:55:44.846Z,4.78
2019-03-13T19:58:13.485Z,4.72
2019-03-13T20:00:41.996Z,4.74
2019-03-13T20:03:17.609Z,4.64
2019-03-13T20:05:46.686Z,4.53
2019-03-13T20:08:15.226Z,4.58
2019-03-13T20:10:43.886Z,4.61
2019-03-13T20:13:12.397Z,4.55
2019-03-13T20:15:40.912Z,4.54
2019-03-13T20:18:10.970Z,4.55
2019-03-13T20:20:41.104Z,4.57
2019-03-13T20:23:11.495Z,4.79
2019-03-13T20:25:40.551Z,4.74
2019-03-13T20:28:09.048Z,4.78
2019-03-13T20:30:37.645Z,4.93
2019-03-13T20:33:06.322Z,4.81
2019-03-13T20:35:36.799Z,4.98
2019-03-13T20:38:05.379Z,5.09
2019-03-13T20:40:33.849Z,5.07
2019-03-13T20:43:02.941Z,4.80
2019-03-13T20:45:31.447Z,4.92
2019-03-13T20:47:59.891Z,4.89
2019-03-13T20:50:36.555Z,4.86
2019-03-13T20:52:58.552Z,4.77
2019-03-13T20:55:27.489Z,4.62
2019-03-13T20:57:56.024Z,4.69
2019-03-13T21:00:28.466Z,4.85
2019-03-13T21:02:59.055Z,4.77
2019-03-13T21:05:27.963Z,4.68
2019-03-13T21:07:57.196Z,4.75
2019-03-13T21:10:26.047Z,4.77
2019-03-13T21:12:55.031Z,4.75
2019-03-13T21:15:25.868Z,4.75
2019-03-13T21:17:54.962Z,4.79
2019-03-13T21:20:24.042Z,4.75
2019-03-13T21:22:53.528Z,4.81
2019-03-13T21:25:24.361Z,4.78
2019-03-13T21:27:53.677Z,4.81
2019-03-13T21:30:27.056Z,4.81
2019-03-13T21:32:56.129Z,4.84
2019-03-13T21:35:26.820Z,4.78
2019-03-13T21:37:55.907Z,4.71
2019-03-13T21:40:27.990Z,4.85
2019-03-13T21:42:56.735Z,4.75
2019-03-13T21:45:26.000Z,4.73
2019-03-13T21:47:56.555Z,4.69
2019-03-13T21:50:31.093Z,4.69
2019-03-13T21:53:00.288Z,4.60
2019-03-13T21:55:29.605Z,4.56
2019-03-13T21:58:01.780Z,4.49
2019-03-13T22:00:31.275Z,4.59
2019-03-13T22:03:00.504Z,4.62
2019-03-13T22:05:31.391Z,4.61
2019-03-13T22:08:02.545Z,4.65
2019-03-13T22:10:31.286Z,4.65
2019-03-13T22:13:01.278Z,4.60
2019-03-13T22:15:30.507Z,4.64
2019-03-13T22:17:59.410Z,4.50
2019-03-13T22:20:28.196Z,4.45
2019-03-13T22:22:57.509Z,4.39
2019-03-13T22:25:26.506Z,4.56
2019-03-13T22:27:56.238Z,4.61
2019-03-13T22:30:28.777Z,4.67
2019-03-13T22:32:59.679Z,4.52
2019-03-13T22:35:28.604Z,4.57
2019-03-13T22:37:57.750Z,4.62
2019-03-13T22:40:52.048Z,4.58
2019-03-13T22:43:20.967Z,4.68
2019-03-13T22:45:50.107Z,4.73
2019-03-13T22:48:21.306Z,4.85
2019-03-13T22:50:50.436Z,4.63
2019-03-13T22:53:20.290Z,4.62
2019-03-13T22:55:49.354Z,4.60
2019-03-13T22:58:18.429Z,4.57
2019-03-13T23:01:00.472Z,4.47
2019-03-13T23:03:31.195Z,4.60
2019-03-13T23:06:01.348Z,4.47
2019-03-13T23:08:31.277Z,4.47
2019-03-13T23:11:00.420Z,4.57
2019-03-13T23:13:29.933Z,4.58
2019-03-13T23:15:58.856Z,4.55
2019-03-13T23:18:28.479Z,4.70
2019-03-13T23:20:57.487Z,4.65
2019-03-13T23:23:26.794Z,4.79
2019-03-13T23:25:57.598Z,4.73
2019-03-13T23:28:26.853Z,4.71
2019-03-13T23:30:56.128Z,4.74
2019-03-13T23:33:25.267Z,4.80
2019-03-13T23:35:54.385Z,4.75
2019-03-13T23:38:23.512Z,4.72
2019-03-13T23:40:51.889Z,4.88
2019-03-13T23:43:20.374Z,4.85
2019-03-13T23:45:48.741Z,4.91
2019-03-13T23:48:17.084Z,4.86
2019-03-13T23:50:45.528Z,4.92
2019-03-13T23:53:13.862Z,4.95
2019-03-13T23:55:42.246Z,5.00
2019-03-13T23:58:11.649Z,5.03
